sensor_id;sensor_type;location;lat;lon;timestamp;temperature;humidity
16200;DHT22;8207;52.494;4.654;2022-11-23T00:01:17;8.50;99.90
16200;DHT22;8207;52.494;4.654;2022-11-23T00:03:46;8.50;99.90
16200;DHT22;8207;52.494;4.654;2022-11-23T00:06:13;8.50;99.90
16200;DHT22;8207;52.494;4.654;2022-11-23T00:08:40;8.50;99.90
16200;DHT22;8207;52.494;4.654;2022-11-23T00:11:08;8.50;99.90
16200;DHT22;8207;52.494;4.654;2022-11-23T00:13:35;8.50;99.90
16200;DHT22;8207;52.494;4.654;2022-11-23T00:16:04;8.50;99.90
16200;DHT22;8207;52.494;4.654;2022-11-23T00:18:34;8.60;99.90
16200;DHT22;8207;52.494;4.654;2022-11-23T00:21:05;8.60;99.90
16200;DHT22;8207;52.494;4.654;2022-11-23T00:23:32;8.60;99.90
16200;DHT22;8207;52.494;4.654;2022-11-23T00:26:00;8.60;99.90
16200;DHT22;8207;52.494;4.654;2022-11-23T00:28:27;8.60;99.90
16200;DHT22;8207;52.494;4.654;2022-11-23T00:30:53;8.60;99.90
16200;DHT22;8207;52.494;4.654;2022-11-23T00:33:20;8.60;99.90
16200;DHT22;8207;52.494;4.654;2022-11-23T00:35:57;8.60;99.90
16200;DHT22;8207;52.494;4.654;2022-11-23T00:38:24;8.60;99.90
16200;DHT22;8207;52.494;4.654;2022-11-23T00:40:57;8.60;99.90
16200;DHT22;8207;52.494;4.654;2022-11-23T00:43:24;8.60;99.90
16200;DHT22;8207;52.494;4.654;2022-11-23T00:46:01;8.50;99.90
16200;DHT22;8207;52.494;4.654;2022-11-23T00:48:29;8.50;99.90
16200;DHT22;8207;52.494;4.654;2022-11-23T00:50:58;8.50;99.90
16200;DHT22;8207;52.494;4.654;2022-11-23T00:53:25;8.50;99.90
16200;DHT22;8207;52.494;4.654;2022-11-23T00:55:53;8.50;99.90
16200;DHT22;8207;52.494;4.654;2022-11-23T00:58:20;8.50;99.90
16200;DHT22;8207;52.494;4.654;2022-11-23T01:00:47;8.50;99.90
16200;DHT22;8207;52.494;4.654;2022-11-23T01:03:14;8.50;99.90
16200;DHT22;8207;52.494;4.654;2022-11-23T01:05:41;8.50;99.90
16200;DHT22;8207;52.494;4.654;2022-11-23T01:08:09;8.60;99.90
16200;DHT22;8207;52.494;4.654;2022-11-23T01:10:36;8.50;99.90
16200;DHT22;8207;52.494;4.654;2022-11-23T01:13:03;8.60;99.90
16200;DHT22;8207;52.494;4.654;2022-11-23T01:15:29;8.50;99.90
16200;DHT22;8207;52.494;4.654;2022-11-23T01:17:56;8.50;99.90
16200;DHT22;8207;52.494;4.654;2022-11-23T01:20:23;8.50;99.90
16200;DHT22;8207;52.494;4.654;2022-11-23T01:22:50;8.60;99.90
16200;DHT22;8207;52.494;4.654;2022-11-23T01:25:19;8.60;99.90
16200;DHT22;8207;52.494;4.654;2022-11-23T01:27:46;8.50;99.90
16200;DHT22;8207;52.494;4.654;2022-11-23T01:30:13;8.50;99.90
16200;DHT22;8207;52.494;4.654;2022-11-23T01:32:40;8.60;99.90
16200;DHT22;8207;52.494;4.654;2022-11-23T01:35:08;8.50;99.90
16200;DHT22;8207;52.494;4.654;2022-11-23T01:37:35;8.50;99.90
16200;DHT22;8207;52.494;4.654;2022-11-23T01:40:02;8.50;99.90
16200;DHT22;8207;52.494;4.654;2022-11-23T01:42:52;8.50;99.90
16200;DHT22;8207;52.494;4.654;2022-11-23T01:45:38;8.50;99.90
16200;DHT22;8207;52.494;4.654;2022-11-23T01:48:12;8.50;99.90
16200;DHT22;8207;52.494;4.654;2022-11-23T01:50:42;8.60;99.90
16200;DHT22;8207;52.494;4.654;2022-11-23T01:53:10;8.60;99.90
16200;DHT22;8207;52.494;4.654;2022-11-23T01:55:37;8.50;99.90
16200;DHT22;8207;52.494;4.654;2022-11-23T01:58:06;8.50;99.90
16200;DHT22;8207;52.494;4.654;2022-11-23T02:00:35;8.50;99.90
16200;DHT22;8207;52.494;4.654;2022-11-23T02:03:03;8.50;99.90
16200;DHT22;8207;52.494;4.654;2022-11-23T02:05:34;8.50;99.90
16200;DHT22;8207;52.494;4.654;2022-11-23T02:08:02;8.50;99.90
16200;DHT22;8207;52.494;4.654;2022-11-23T02:10:30;8.60;99.90
16200;DHT22;8207;52.494;4.654;2022-11-23T02:13:01;8.60;99.90
16200;DHT22;8207;52.494;4.654;2022-11-23T02:15:30;8.60;99.90
16200;DHT22;8207;52.494;4.654;2022-11-23T02:17:58;8.60;99.90
16200;DHT22;8207;52.494;4.654;2022-11-23T02:20:26;8.60;99.90
16200;DHT22;8207;52.494;4.654;2022-11-23T02:23:07;8.60;99.90
16200;DHT22;8207;52.494;4.654;2022-11-23T02:25:40;8.60;99.90
16200;DHT22;8207;52.494;4.654;2022-11-23T02:28:12;8.60;99.90
16200;DHT22;8207;52.494;4.654;2022-11-23T02:30:40;8.60;99.90
16200;DHT22;8207;52.494;4.654;2022-11-23T02:33:07;8.70;99.90
16200;DHT22;8207;52.494;4.654;2022-11-23T02:35:34;8.70;99.90
16200;DHT22;8207;52.494;4.654;2022-11-23T02:38:01;8.70;99.90
16200;DHT22;8207;52.494;4.654;2022-11-23T02:40:34;8.70;99.90
16200;DHT22;8207;52.494;4.654;2022-11-23T02:43:01;8.60;99.90
16200;DHT22;8207;52.494;4.654;2022-11-23T02:45:34;8.60;99.90
16200;DHT22;8207;52.494;4.654;2022-11-23T02:48:03;8.60;99.90
16200;DHT22;8207;52.494;4.654;2022-11-23T02:50:30;8.60;99.90
16200;DHT22;8207;52.494;4.654;2022-11-23T02:52:57;8.60;99.90
16200;DHT22;8207;52.494;4.654;2022-11-23T02:55:24;8.60;99.90
16200;DHT22;8207;52.494;4.654;2022-11-23T02:57:51;8.60;99.90
16200;DHT22;8207;52.494;4.654;2022-11-23T03:00:18;8.60;99.90
16200;DHT22;8207;52.494;4.654;2022-11-23T03:02:46;8.60;99.90
16200;DHT22;8207;52.494;4.654;2022-11-23T03:05:13;8.60;99.90
16200;DHT22;8207;52.494;4.654;2022-11-23T03:07:40;8.60;99.90
16200;DHT22;8207;52.494;4.654;2022-11-23T03:10:08;8.60;99.90
16200;DHT22;8207;52.494;4.654;2022-11-23T03:12:35;8.60;99.90
16200;DHT22;8207;52.494;4.654;2022-11-23T03:15:02;8.60;99.90
16200;DHT22;8207;52.494;4.654;2022-11-23T03:17:29;8.60;99.90
16200;DHT22;8207;52.494;4.654;2022-11-23T03:19:58;8.60;99.90
16200;DHT22;8207;52.494;4.654;2022-11-23T03:22:25;8.60;99.90
16200;DHT22;8207;52.494;4.654;2022-11-23T03:24:52;8.60;99.90
16200;DHT22;8207;52.494;4.654;2022-11-23T03:27:19;8.60;99.90
16200;DHT22;8207;52.494;4.654;2022-11-23T03:29:46;8.60;99.90
16200;DHT22;8207;52.494;4.654;2022-11-23T03:32:13;8.60;99.90
16200;DHT22;8207;52.494;4.654;2022-11-23T03:34:40;8.50;99.90
16200;DHT22;8207;52.494;4.654;2022-11-23T03:37:08;8.60;99.90
16200;DHT22;8207;52.494;4.654;2022-11-23T03:39:35;8.60;99.90
16200;DHT22;8207;52.494;4.654;2022-11-23T03:42:02;8.60;99.90
16200;DHT22;8207;52.494;4.654;2022-11-23T03:44:29;8.60;99.90
16200;DHT22;8207;52.494;4.654;2022-11-23T03:46:56;8.60;99.90
16200;DHT22;8207;52.494;4.654;2022-11-23T03:49:23;8.60;99.90
16200;DHT22;8207;52.494;4.654;2022-11-23T03:51:50;8.60;99.90
16200;DHT22;8207;52.494;4.654;2022-11-23T03:54:19;8.60;99.90
16200;DHT22;8207;52.494;4.654;2022-11-23T03:56:46;8.60;99.90
16200;DHT22;8207;52.494;4.654;2022-11-23T03:59:12;8.60;99.90
16200;DHT22;8207;52.494;4.654;2022-11-23T04:01:39;8.60;99.90
16200;DHT22;8207;52.494;4.654;2022-11-23T04:04:06;8.60;99.90
16200;DHT22;8207;52.494;4.654;2022-11-23T04:06:33;8.60;99.90
16200;DHT22;8207;52.494;4.654;2022-11-23T04:09:00;8.60;99.90
16200;DHT22;8207;52.494;4.654;2022-11-23T04:11:28;8.60;99.90
16200;DHT22;8207;52.494;4.654;2022-11-23T04:13:55;8.60;99.90
16200;DHT22;8207;52.494;4.654;2022-11-23T04:16:22;8.60;99.90
16200;DHT22;8207;52.494;4.654;2022-11-23T04:18:49;8.60;99.90
16200;DHT22;8207;52.494;4.654;2022-11-23T04:21:16;8.60;99.90
16200;DHT22;8207;52.494;4.654;2022-11-23T04:23:42;8.60;99.90
16200;DHT22;8207;52.494;4.654;2022-11-23T04:26:09;8.60;99.90
16200;DHT22;8207;52.494;4.654;2022-11-23T04:28:37;8.60;99.90
16200;DHT22;8207;52.494;4.654;2022-11-23T04:31:04;8.60;99.90
16200;DHT22;8207;52.494;4.654;2022-11-23T04:33:31;8.60;99.90
16200;DHT22;8207;52.494;4.654;2022-11-23T04:35:58;8.60;99.90
16200;DHT22;8207;52.494;4.654;2022-11-23T04:38:25;8.60;99.90
16200;DHT22;8207;52.494;4.654;2022-11-23T04:40:52;8.50;99.90
16200;DHT22;8207;52.494;4.654;2022-11-23T04:43:19;8.50;99.90
16200;DHT22;8207;52.494;4.654;2022-11-23T04:45:48;8.50;99.90
16200;DHT22;8207;52.494;4.654;2022-11-23T04:48:14;8.60;99.90
16200;DHT22;8207;52.494;4.654;2022-11-23T04:50:41;8.50;99.90
16200;DHT22;8207;52.494;4.654;2022-11-23T04:53:08;8.60;99.90
16200;DHT22;8207;52.494;4.654;2022-11-23T04:55:35;8.60;99.90
16200;DHT22;8207;52.494;4.654;2022-11-23T04:58:02;8.60;99.90
16200;DHT22;8207;52.494;4.654;2022-11-23T05:00:29;8.60;99.90
16200;DHT22;8207;52.494;4.654;2022-11-23T05:02:59;8.60;99.90
16200;DHT22;8207;52.494;4.654;2022-11-23T05:05:26;8.60;99.90
16200;DHT22;8207;52.494;4.654;2022-11-23T05:07:53;8.60;99.90
16200;DHT22;8207;52.494;4.654;2022-11-23T05:10:20;8.60;99.90
16200;DHT22;8207;52.494;4.654;2022-11-23T05:12:47;8.70;99.90
16200;DHT22;8207;52.494;4.654;2022-11-23T05:15:14;8.70;99.90
16200;DHT22;8207;52.494;4.654;2022-11-23T05:17:41;8.70;99.90
16200;DHT22;8207;52.494;4.654;2022-11-23T05:20:10;8.70;99.90
16200;DHT22;8207;52.494;4.654;2022-11-23T05:22:37;8.70;99.90
16200;DHT22;8207;52.494;4.654;2022-11-23T05:25:05;8.60;99.90
16200;DHT22;8207;52.494;4.654;2022-11-23T05:27:33;8.70;99.90
16200;DHT22;8207;52.494;4.654;2022-11-23T05:29:59;8.70;99.90
16200;DHT22;8207;52.494;4.654;2022-11-23T05:32:27;8.70;99.90
16200;DHT22;8207;52.494;4.654;2022-11-23T05:34:53;8.70;99.90
16200;DHT22;8207;52.494;4.654;2022-11-23T05:37:22;8.70;99.90
16200;DHT22;8207;52.494;4.654;2022-11-23T05:39:49;8.60;99.90
16200;DHT22;8207;52.494;4.654;2022-11-23T05:42:15;8.60;99.90
16200;DHT22;8207;52.494;4.654;2022-11-23T05:44:42;8.60;99.90
16200;DHT22;8207;52.494;4.654;2022-11-23T05:47:09;8.70;99.90
16200;DHT22;8207;52.494;4.654;2022-11-23T05:49:36;8.70;99.90
16200;DHT22;8207;52.494;4.654;2022-11-23T05:52:03;8.70;99.90
16200;DHT22;8207;52.494;4.654;2022-11-23T05:54:32;8.70;99.90
16200;DHT22;8207;52.494;4.654;2022-11-23T05:56:59;8.60;99.90
16200;DHT22;8207;52.494;4.654;2022-11-23T05:59:26;8.60;99.90
16200;DHT22;8207;52.494;4.654;2022-11-23T06:01:52;8.60;99.90
16200;DHT22;8207;52.494;4.654;2022-11-23T06:04:19;8.60;99.90
16200;DHT22;8207;52.494;4.654;2022-11-23T06:06:46;8.60;99.90
16200;DHT22;8207;52.494;4.654;2022-11-23T06:09:13;8.60;99.90
16200;DHT22;8207;52.494;4.654;2022-11-23T06:11:41;8.60;99.90
16200;DHT22;8207;52.494;4.654;2022-11-23T06:14:09;8.60;99.90
16200;DHT22;8207;52.494;4.654;2022-11-23T06:16:36;8.60;99.90
16200;DHT22;8207;52.494;4.654;2022-11-23T06:19:03;8.60;99.90
16200;DHT22;8207;52.494;4.654;2022-11-23T06:21:30;8.70;99.90
16200;DHT22;8207;52.494;4.654;2022-11-23T06:23:57;8.60;99.90
16200;DHT22;8207;52.494;4.654;2022-11-23T06:26:24;8.60;99.90
16200;DHT22;8207;52.494;4.654;2022-11-23T06:28:52;8.60;99.90
16200;DHT22;8207;52.494;4.654;2022-11-23T06:31:19;8.60;99.90
16200;DHT22;8207;52.494;4.654;2022-11-23T06:33:46;8.60;99.90
16200;DHT22;8207;52.494;4.654;2022-11-23T06:36:13;8.50;99.90
16200;DHT22;8207;52.494;4.654;2022-11-23T06:38:40;8.60;99.90
16200;DHT22;8207;52.494;4.654;2022-11-23T06:41:07;8.60;99.90
16200;DHT22;8207;52.494;4.654;2022-11-23T06:43:34;8.60;99.90
16200;DHT22;8207;52.494;4.654;2022-11-23T06:46:04;8.60;99.90
16200;DHT22;8207;52.494;4.654;2022-11-23T06:48:32;8.60;99.90
16200;DHT22;8207;52.494;4.654;2022-11-23T06:50:59;8.60;99.90
16200;DHT22;8207;52.494;4.654;2022-11-23T06:53:26;8.50;99.90
16200;DHT22;8207;52.494;4.654;2022-11-23T06:55:57;8.50;99.90
16200;DHT22;8207;52.494;4.654;2022-11-23T06:58:24;8.50;99.90
16200;DHT22;8207;52.494;4.654;2022-11-23T07:00:51;8.50;99.90
16200;DHT22;8207;52.494;4.654;2022-11-23T07:03:21;8.40;99.90
16200;DHT22;8207;52.494;4.654;2022-11-23T07:05:49;8.40;99.90
16200;DHT22;8207;52.494;4.654;2022-11-23T07:08:16;8.40;99.90
16200;DHT22;8207;52.494;4.654;2022-11-23T07:10:43;8.30;99.90
16200;DHT22;8207;52.494;4.654;2022-11-23T07:13:10;8.30;99.90
16200;DHT22;8207;52.494;4.654;2022-11-23T07:15:39;8.30;99.90
16200;DHT22;8207;52.494;4.654;2022-11-23T07:18:06;8.30;99.90
16200;DHT22;8207;52.494;4.654;2022-11-23T07:20:35;8.20;99.90
16200;DHT22;8207;52.494;4.654;2022-11-23T07:23:03;8.20;99.90
16200;DHT22;8207;52.494;4.654;2022-11-23T07:25:32;8.20;99.90
16200;DHT22;8207;52.494;4.654;2022-11-23T07:28:00;8.20;99.90
16200;DHT22;8207;52.494;4.654;2022-11-23T07:30:29;8.20;99.90
16200;DHT22;8207;52.494;4.654;2022-11-23T07:32:58;8.20;99.90
16200;DHT22;8207;52.494;4.654;2022-11-23T07:35:25;8.20;99.90
16200;DHT22;8207;52.494;4.654;2022-11-23T07:37:53;8.20;99.90
16200;DHT22;8207;52.494;4.654;2022-11-23T07:40:20;8.20;99.90
16200;DHT22;8207;52.494;4.654;2022-11-23T07:42:47;8.20;99.90
16200;DHT22;8207;52.494;4.654;2022-11-23T07:45:14;8.30;99.90
16200;DHT22;8207;52.494;4.654;2022-11-23T07:47:41;8.30;99.90
16200;DHT22;8207;52.494;4.654;2022-11-23T07:50:09;8.30;99.90
16200;DHT22;8207;52.494;4.654;2022-11-23T07:52:37;8.30;99.90
16200;DHT22;8207;52.494;4.654;2022-11-23T07:55:07;8.30;99.90
16200;DHT22;8207;52.494;4.654;2022-11-23T07:57:34;8.40;99.90
16200;DHT22;8207;52.494;4.654;2022-11-23T08:00:01;8.40;99.90
16200;DHT22;8207;52.494;4.654;2022-11-23T08:02:28;8.40;99.90
16200;DHT22;8207;52.494;4.654;2022-11-23T08:04:54;8.40;99.90
16200;DHT22;8207;52.494;4.654;2022-11-23T08:07:21;8.40;99.90
16200;DHT22;8207;52.494;4.654;2022-11-23T08:09:48;8.40;99.90
16200;DHT22;8207;52.494;4.654;2022-11-23T08:12:17;8.40;99.90
16200;DHT22;8207;52.494;4.654;2022-11-23T08:14:44;8.40;99.90
16200;DHT22;8207;52.494;4.654;2022-11-23T08:17:11;8.40;99.90
16200;DHT22;8207;52.494;4.654;2022-11-23T08:19:39;8.40;99.90
16200;DHT22;8207;52.494;4.654;2022-11-23T08:22:06;8.40;99.90
16200;DHT22;8207;52.494;4.654;2022-11-23T08:24:33;8.40;99.90
16200;DHT22;8207;52.494;4.654;2022-11-23T08:26:59;8.40;99.90
16200;DHT22;8207;52.494;4.654;2022-11-23T08:29:28;8.40;99.90
16200;DHT22;8207;52.494;4.654;2022-11-23T08:31:55;8.40;99.90
16200;DHT22;8207;52.494;4.654;2022-11-23T08:34:22;8.40;99.90
16200;DHT22;8207;52.494;4.654;2022-11-23T08:36:51;8.50;99.90
16200;DHT22;8207;52.494;4.654;2022-11-23T08:39:17;8.50;99.90
16200;DHT22;8207;52.494;4.654;2022-11-23T08:41:44;8.50;99.90
16200;DHT22;8207;52.494;4.654;2022-11-23T08:44:11;8.50;99.90
16200;DHT22;8207;52.494;4.654;2022-11-23T08:46:39;8.50;99.90
16200;DHT22;8207;52.494;4.654;2022-11-23T08:49:06;8.50;99.90
16200;DHT22;8207;52.494;4.654;2022-11-23T08:51:34;8.50;99.90
16200;DHT22;8207;52.494;4.654;2022-11-23T08:54:01;8.50;99.90
16200;DHT22;8207;52.494;4.654;2022-11-23T08:56:27;8.50;99.90
16200;DHT22;8207;52.494;4.654;2022-11-23T08:58:54;8.50;99.90
16200;DHT22;8207;52.494;4.654;2022-11-23T09:01:21;8.50;99.90
16200;DHT22;8207;52.494;4.654;2022-11-23T09:03:49;8.50;99.90
16200;DHT22;8207;52.494;4.654;2022-11-23T09:06:16;8.60;99.90
16200;DHT22;8207;52.494;4.654;2022-11-23T09:08:43;8.60;99.90
16200;DHT22;8207;52.494;4.654;2022-11-23T09:11:11;8.60;99.90
16200;DHT22;8207;52.494;4.654;2022-11-23T09:13:39;8.60;99.90
16200;DHT22;8207;52.494;4.654;2022-11-23T09:16:07;8.60;99.90
16200;DHT22;8207;52.494;4.654;2022-11-23T09:18:34;8.60;99.90
16200;DHT22;8207;52.494;4.654;2022-11-23T09:21:06;8.60;99.90
16200;DHT22;8207;52.494;4.654;2022-11-23T09:23:33;8.60;99.90
16200;DHT22;8207;52.494;4.654;2022-11-23T09:26:01;8.60;99.90
16200;DHT22;8207;52.494;4.654;2022-11-23T09:28:28;8.60;99.90
16200;DHT22;8207;52.494;4.654;2022-11-23T09:30:56;8.60;99.90
16200;DHT22;8207;52.494;4.654;2022-11-23T09:33:23;8.70;99.90
16200;DHT22;8207;52.494;4.654;2022-11-23T09:35:56;8.70;99.90
16200;DHT22;8207;52.494;4.654;2022-11-23T09:38:25;8.70;99.90
16200;DHT22;8207;52.494;4.654;2022-11-23T09:40:58;8.70;99.90
16200;DHT22;8207;52.494;4.654;2022-11-23T09:43:40;8.70;99.90
16200;DHT22;8207;52.494;4.654;2022-11-23T09:46:16;8.70;99.90
16200;DHT22;8207;52.494;4.654;2022-11-23T09:48:58;8.70;99.90
16200;DHT22;8207;52.494;4.654;2022-11-23T09:51:28;8.70;99.90
16200;DHT22;8207;52.494;4.654;2022-11-23T09:53:58;8.70;99.90
16200;DHT22;8207;52.494;4.654;2022-11-23T09:56:28;8.70;99.90
16200;DHT22;8207;52.494;4.654;2022-11-23T09:58:58;8.70;99.90
16200;DHT22;8207;52.494;4.654;2022-11-23T10:01:25;8.70;99.90
16200;DHT22;8207;52.494;4.654;2022-11-23T10:03:54;8.70;99.90
16200;DHT22;8207;52.494;4.654;2022-11-23T10:06:23;8.70;99.90
16200;DHT22;8207;52.494;4.654;2022-11-23T10:09:05;8.80;99.90
16200;DHT22;8207;52.494;4.654;2022-11-23T10:11:49;8.80;99.90
16200;DHT22;8207;52.494;4.654;2022-11-23T10:14:32;8.80;99.90
16200;DHT22;8207;52.494;4.654;2022-11-23T10:17:08;8.80;99.90
16200;DHT22;8207;52.494;4.654;2022-11-23T10:19:46;8.80;99.90
16200;DHT22;8207;52.494;4.654;2022-11-23T10:22:20;8.80;99.90
16200;DHT22;8207;52.494;4.654;2022-11-23T10:24:51;8.80;99.90
16200;DHT22;8207;52.494;4.654;2022-11-23T10:27:20;8.90;99.90
16200;DHT22;8207;52.494;4.654;2022-11-23T10:29:48;8.90;99.90
16200;DHT22;8207;52.494;4.654;2022-11-23T10:32:24;9.00;99.90
16200;DHT22;8207;52.494;4.654;2022-11-23T10:35:00;9.00;99.90
16200;DHT22;8207;52.494;4.654;2022-11-23T10:37:28;9.00;99.90
16200;DHT22;8207;52.494;4.654;2022-11-23T10:39:57;9.10;99.90
16200;DHT22;8207;52.494;4.654;2022-11-23T10:42:29;9.10;99.90
16200;DHT22;8207;52.494;4.654;2022-11-23T10:44:58;9.10;99.90
16200;DHT22;8207;52.494;4.654;2022-11-23T10:47:37;9.20;99.90
16200;DHT22;8207;52.494;4.654;2022-11-23T10:50:21;9.20;99.90
16200;DHT22;8207;52.494;4.654;2022-11-23T10:52:54;9.20;99.90
16200;DHT22;8207;52.494;4.654;2022-11-23T10:55:26;9.30;99.90
16200;DHT22;8207;52.494;4.654;2022-11-23T10:57:53;9.30;99.90
16200;DHT22;8207;52.494;4.654;2022-11-23T11:00:22;9.30;99.90
16200;DHT22;8207;52.494;4.654;2022-11-23T11:02:50;9.20;99.90
16200;DHT22;8207;52.494;4.654;2022-11-23T11:05:29;9.20;99.90
16200;DHT22;8207;52.494;4.654;2022-11-23T11:07:58;9.20;99.90
16200;DHT22;8207;52.494;4.654;2022-11-23T11:10:46;9.20;99.90
16200;DHT22;8207;52.494;4.654;2022-11-23T11:13:23;9.20;99.90
16200;DHT22;8207;52.494;4.654;2022-11-23T11:15:54;9.20;99.90
16200;DHT22;8207;52.494;4.654;2022-11-23T11:18:25;9.20;99.90
16200;DHT22;8207;52.494;4.654;2022-11-23T11:20:56;9.30;99.90
16200;DHT22;8207;52.494;4.654;2022-11-23T11:23:24;9.30;99.90
16200;DHT22;8207;52.494;4.654;2022-11-23T11:26:02;9.30;99.90
16200;DHT22;8207;52.494;4.654;2022-11-23T11:28:34;9.30;99.90
16200;DHT22;8207;52.494;4.654;2022-11-23T11:34:10;9.20;99.90
16200;DHT22;8207;52.494;4.654;2022-11-23T11:36:44;9.20;99.90
16200;DHT22;8207;52.494;4.654;2022-11-23T11:39:17;9.20;99.90
16200;DHT22;8207;52.494;4.654;2022-11-23T11:41:49;9.20;99.90
16200;DHT22;8207;52.494;4.654;2022-11-23T11:44:21;9.10;99.90
16200;DHT22;8207;52.494;4.654;2022-11-23T11:46:53;9.10;99.90
16200;DHT22;8207;52.494;4.654;2022-11-23T11:49:25;9.00;99.90
16200;DHT22;8207;52.494;4.654;2022-11-23T11:51:58;9.00;99.90
16200;DHT22;8207;52.494;4.654;2022-11-23T11:54:31;9.00;99.90
16200;DHT22;8207;52.494;4.654;2022-11-23T11:57:05;9.00;99.90
16200;DHT22;8207;52.494;4.654;2022-11-23T11:59:39;9.00;99.90
16200;DHT22;8207;52.494;4.654;2022-11-23T12:02:17;9.00;99.90
16200;DHT22;8207;52.494;4.654;2022-11-23T12:04:52;9.00;99.90
16200;DHT22;8207;52.494;4.654;2022-11-23T12:07:26;9.00;99.90
16200;DHT22;8207;52.494;4.654;2022-11-23T12:09:59;9.00;99.90
16200;DHT22;8207;52.494;4.654;2022-11-23T12:12:32;9.10;99.90
16200;DHT22;8207;52.494;4.654;2022-11-23T12:14:59;9.00;99.90
16200;DHT22;8207;52.494;4.654;2022-11-23T12:17:46;9.00;99.90
16200;DHT22;8207;52.494;4.654;2022-11-23T12:20:23;9.00;99.90
16200;DHT22;8207;52.494;4.654;2022-11-23T12:23:02;9.00;99.90
16200;DHT22;8207;52.494;4.654;2022-11-23T12:25:35;9.00;99.90
16200;DHT22;8207;52.494;4.654;2022-11-23T12:28:17;9.00;99.90
16200;DHT22;8207;52.494;4.654;2022-11-23T12:30:54;9.00;99.90
16200;DHT22;8207;52.494;4.654;2022-11-23T12:36:38;9.10;99.90
16200;DHT22;8207;52.494;4.654;2022-11-23T12:39:19;9.10;99.90
16200;DHT22;8207;52.494;4.654;2022-11-23T12:41:55;9.10;99.90
16200;DHT22;8207;52.494;4.654;2022-11-23T12:44:51;9.10;99.90
16200;DHT22;8207;52.494;4.654;2022-11-23T12:47:28;9.10;99.90
16200;DHT22;8207;52.494;4.654;2022-11-23T12:50:03;9.10;99.90
16200;DHT22;8207;52.494;4.654;2022-11-23T12:52:41;9.10;99.90
16200;DHT22;8207;52.494;4.654;2022-11-23T12:55:18;9.20;99.90
16200;DHT22;8207;52.494;4.654;2022-11-23T12:57:51;9.20;99.90
16200;DHT22;8207;52.494;4.654;2022-11-23T13:00:22;9.30;99.90
16200;DHT22;8207;52.494;4.654;2022-11-23T13:03:06;9.30;99.90
16200;DHT22;8207;52.494;4.654;2022-11-23T13:05:52;9.40;99.90
16200;DHT22;8207;52.494;4.654;2022-11-23T13:08:48;9.40;99.90
16200;DHT22;8207;52.494;4.654;2022-11-23T13:11:25;9.40;99.90
16200;DHT22;8207;52.494;4.654;2022-11-23T13:14:07;9.40;99.90
16200;DHT22;8207;52.494;4.654;2022-11-23T13:22:37;9.50;99.90
16200;DHT22;8207;52.494;4.654;2022-11-23T13:25:23;9.50;99.90
16200;DHT22;8207;52.494;4.654;2022-11-23T13:27:58;9.50;99.90
16200;DHT22;8207;52.494;4.654;2022-11-23T13:30:31;9.50;99.90
16200;DHT22;8207;52.494;4.654;2022-11-23T13:33:02;9.40;99.90
16200;DHT22;8207;52.494;4.654;2022-11-23T13:35:56;9.30;99.90
16200;DHT22;8207;52.494;4.654;2022-11-23T13:38:34;9.20;99.90
16200;DHT22;8207;52.494;4.654;2022-11-23T13:41:01;9.20;99.90
16200;DHT22;8207;52.494;4.654;2022-11-23T13:43:29;9.20;99.90
16200;DHT22;8207;52.494;4.654;2022-11-23T13:46:16;9.10;99.90
16200;DHT22;8207;52.494;4.654;2022-11-23T13:48:48;9.00;99.90
16200;DHT22;8207;52.494;4.654;2022-11-23T13:51:22;9.00;99.90
16200;DHT22;8207;52.494;4.654;2022-11-23T13:53:52;9.00;99.90
16200;DHT22;8207;52.494;4.654;2022-11-23T13:56:24;8.90;99.90
16200;DHT22;8207;52.494;4.654;2022-11-23T13:58:53;8.90;99.90
16200;DHT22;8207;52.494;4.654;2022-11-23T14:04:27;8.90;99.90
16200;DHT22;8207;52.494;4.654;2022-11-23T14:06:57;8.90;99.90
16200;DHT22;8207;52.494;4.654;2022-11-23T14:09:31;8.80;99.90
16200;DHT22;8207;52.494;4.654;2022-11-23T14:12:13;8.80;99.90
16200;DHT22;8207;52.494;4.654;2022-11-23T14:14:48;8.80;99.90
16200;DHT22;8207;52.494;4.654;2022-11-23T14:20:54;8.80;99.90
16200;DHT22;8207;52.494;4.654;2022-11-23T14:26:40;8.80;99.90
16200;DHT22;8207;52.494;4.654;2022-11-23T14:29:28;8.80;99.90
16200;DHT22;8207;52.494;4.654;2022-11-23T14:32:19;8.80;99.90
16200;DHT22;8207;52.494;4.654;2022-11-23T14:35:10;8.80;99.90
16200;DHT22;8207;52.494;4.654;2022-11-23T14:37:59;8.80;99.90
16200;DHT22;8207;52.494;4.654;2022-11-23T14:40:30;8.80;99.90
16200;DHT22;8207;52.494;4.654;2022-11-23T14:43:02;8.80;99.90
16200;DHT22;8207;52.494;4.654;2022-11-23T14:45:31;8.80;99.90
16200;DHT22;8207;52.494;4.654;2022-11-23T14:48:20;8.80;99.90
16200;DHT22;8207;52.494;4.654;2022-11-23T14:50:53;8.80;99.90
16200;DHT22;8207;52.494;4.654;2022-11-23T14:53:24;8.80;99.90
16200;DHT22;8207;52.494;4.654;2022-11-23T14:55:53;8.80;99.90
16200;DHT22;8207;52.494;4.654;2022-11-23T14:58:20;8.80;99.90
16200;DHT22;8207;52.494;4.654;2022-11-23T15:00:51;8.80;99.90
16200;DHT22;8207;52.494;4.654;2022-11-23T15:03:19;8.80;99.90
16200;DHT22;8207;52.494;4.654;2022-11-23T15:05:48;8.80;99.90
16200;DHT22;8207;52.494;4.654;2022-11-23T15:08:20;8.80;99.90
16200;DHT22;8207;52.494;4.654;2022-11-23T15:10:53;8.80;99.90
16200;DHT22;8207;52.494;4.654;2022-11-23T15:13:24;8.80;99.90
16200;DHT22;8207;52.494;4.654;2022-11-23T15:15:53;8.80;99.90
16200;DHT22;8207;52.494;4.654;2022-11-23T15:18:28;8.80;99.90
16200;DHT22;8207;52.494;4.654;2022-11-23T15:20:58;8.80;99.90
16200;DHT22;8207;52.494;4.654;2022-11-23T15:23:32;8.80;99.90
16200;DHT22;8207;52.494;4.654;2022-11-23T15:26:03;8.80;99.90
16200;DHT22;8207;52.494;4.654;2022-11-23T15:28:34;8.80;99.90
16200;DHT22;8207;52.494;4.654;2022-11-23T15:31:16;8.80;99.90
16200;DHT22;8207;52.494;4.654;2022-11-23T15:33:45;8.80;99.90
16200;DHT22;8207;52.494;4.654;2022-11-23T15:36:16;8.80;99.90
16200;DHT22;8207;52.494;4.654;2022-11-23T15:38:43;8.80;99.90
16200;DHT22;8207;52.494;4.654;2022-11-23T15:41:12;8.80;99.90
16200;DHT22;8207;52.494;4.654;2022-11-23T15:43:50;8.80;99.90
16200;DHT22;8207;52.494;4.654;2022-11-23T15:46:17;8.80;99.90
16200;DHT22;8207;52.494;4.654;2022-11-23T15:48:47;8.80;99.90
16200;DHT22;8207;52.494;4.654;2022-11-23T15:51:27;8.80;99.90
16200;DHT22;8207;52.494;4.654;2022-11-23T15:53:57;8.80;99.90
16200;DHT22;8207;52.494;4.654;2022-11-23T15:56:28;8.80;99.90
16200;DHT22;8207;52.494;4.654;2022-11-23T15:58:56;8.90;99.90
16200;DHT22;8207;52.494;4.654;2022-11-23T16:01:23;8.80;99.90
16200;DHT22;8207;52.494;4.654;2022-11-23T16:03:52;8.80;99.90
16200;DHT22;8207;52.494;4.654;2022-11-23T16:06:38;8.80;99.90
16200;DHT22;8207;52.494;4.654;2022-11-23T16:09:36;8.80;99.90
16200;DHT22;8207;52.494;4.654;2022-11-23T16:12:21;8.90;99.90
16200;DHT22;8207;52.494;4.654;2022-11-23T16:14:50;8.90;99.90
16200;DHT22;8207;52.494;4.654;2022-11-23T16:17:19;8.90;99.90
16200;DHT22;8207;52.494;4.654;2022-11-23T16:19:47;8.90;99.90
16200;DHT22;8207;52.494;4.654;2022-11-23T16:22:22;8.90;99.90
16200;DHT22;8207;52.494;4.654;2022-11-23T16:24:50;8.90;99.90
16200;DHT22;8207;52.494;4.654;2022-11-23T16:27:23;8.90;99.90
16200;DHT22;8207;52.494;4.654;2022-11-23T16:29:51;8.90;99.90
16200;DHT22;8207;52.494;4.654;2022-11-23T16:32:24;8.90;99.90
16200;DHT22;8207;52.494;4.654;2022-11-23T16:34:52;8.90;99.90
16200;DHT22;8207;52.494;4.654;2022-11-23T16:37:19;8.90;99.90
16200;DHT22;8207;52.494;4.654;2022-11-23T16:39:46;8.90;99.90
16200;DHT22;8207;52.494;4.654;2022-11-23T16:42:14;8.90;99.90
16200;DHT22;8207;52.494;4.654;2022-11-23T16:44:43;8.90;99.90